Time;durP1;ratioP1;P1;durP2;ratioP2;P2;SDS_P1;SDS_P2;PMS_P1;PMS_P2;Temp;Humidity;BMP_temperature;BMP_pressure;BME280_temperature;BME280_humidity;BME280_pressure;Samples;Min_cycle;Max_cycle;Signal;HPM_P1;HPM_P2
2022/01/23 00:00:02;;;;;;;7.10;5.00;;;5.80;73.90;;;;;;5070536;28;20028;-72
2022/01/23 00:02:28;;;;;;;6.55;4.68;;;5.80;73.90;;;;;;5055186;28;20040;-73
2022/01/23 00:04:54;;;;;;;7.07;4.80;;;5.70;73.90;;;;;;5057155;28;20025;-72
2022/01/23 00:07:21;;;;;;;7.65;5.43;;;5.80;74.10;;;;;;5052296;28;20024;-72
2022/01/23 00:09:47;;;;;;;6.18;4.95;;;5.80;74.10;;;;;;5063667;28;20462;-72
2022/01/23 00:12:20;;;;;;;8.52;5.15;;;5.80;74.10;;;;;;5053813;28;20506;-72
2022/01/23 00:17:34;;;;;;;8.02;5.25;;;6.00;74.30;;;;;;5037509;28;20086;-72
2022/01/23 00:20:04;;;;;;;7.63;5.53;;;5.80;74.20;;;;;;5056583;28;20032;-72
2022/01/23 00:22:42;;;;;;;7.68;5.53;;;5.80;74.20;;;;;;5055771;28;20496;-73
2022/01/23 00:30:41;;;;;;;7.60;5.75;;;5.90;74.20;;;;;;5039146;28;20423;-73
2022/01/23 00:33:08;;;;;;;8.27;6.18;;;5.90;74.20;;;;;;5046919;28;20064;-74
2022/01/23 00:35:37;;;;;;;10.27;6.45;;;5.90;74.20;;;;;;5041000;28;20057;-74
2022/01/23 00:38:05;;;;;;;9.07;6.10;;;5.90;74.20;;;;;;5063904;28;20401;-73
2022/01/23 00:40:33;;;;;;;7.95;5.80;;;5.90;74.10;;;;;;5056347;28;20082;-72
2022/01/23 00:43:00;;;;;;;8.30;5.90;;;5.90;74.10;;;;;;5061767;28;20044;-73
2022/01/23 00:45:33;;;;;;;9.35;6.07;;;5.90;74.00;;;;;;5052259;28;20112;-72
2022/01/23 00:48:06;;;;;;;9.88;5.70;;;5.90;74.00;;;;;;5050811;28;20025;-72
2022/01/23 00:50:37;;;;;;;8.70;6.18;;;5.90;73.90;;;;;;5050958;28;20076;-72
2022/01/23 00:53:05;;;;;;;9.10;6.75;;;5.90;73.90;;;;;;5051768;28;20124;-72
2022/01/23 00:55:31;;;;;;;8.88;6.32;;;6.00;73.90;;;;;;5064012;28;20087;-72
2022/01/23 00:57:56;;;;;;;9.30;6.28;;;5.90;73.80;;;;;;5055788;28;20033;-73
2022/01/23 01:00:22;;;;;;;9.25;6.47;;;6.00;73.90;;;;;;5054071;28;20029;-72
2022/01/23 01:02:48;;;;;;;8.15;5.68;;;6.00;73.90;;;;;;5063254;28;20044;-72
2022/01/23 01:05:14;;;;;;;8.07;6.03;;;6.00;73.80;;;;;;5056904;28;20029;-72
2022/01/23 01:07:40;;;;;;;8.80;5.97;;;6.00;73.70;;;;;;5054547;28;20047;-72
2022/01/23 01:10:16;;;;;;;7.60;5.25;;;6.00;73.70;;;;;;5071470;28;20021;-72
2022/01/23 01:12:46;;;;;;;9.40;6.38;;;6.00;73.60;;;;;;5057212;28;20089;-73
2022/01/23 01:38:49;;;;;;;5.70;4.45;;;5.50;72.90;;;;;;5059353;28;20420;-72
2022/01/23 01:41:18;;;;;;;5.70;4.53;;;5.50;73.10;;;;;;5062497;28;20085;-73
2022/01/23 01:43:45;;;;;;;6.70;5.50;;;5.50;73.30;;;;;;5065417;28;20473;-73
2022/01/23 01:46:11;;;;;;;6.05;4.90;;;5.40;73.30;;;;;;5067530;28;20473;-72
2022/01/23 01:48:38;;;;;;;6.75;4.85;;;5.40;73.40;;;;;;5054955;28;20060;-72
2022/01/23 01:51:06;;;;;;;6.80;5.43;;;5.40;73.50;;;;;;5054604;28;20469;-73
2022/01/23 01:53:33;;;;;;;7.30;5.47;;;5.30;73.50;;;;;;5059562;28;20465;-72
2022/01/23 01:55:59;;;;;;;7.43;5.50;;;5.30;73.50;;;;;;5056303;28;20473;-73
2022/01/23 01:59:07;;;;;;;10.52;6.13;;;5.30;73.70;;;;;;5065536;28;20410;-72
2022/01/23 02:09:22;;;;;;;8.30;6.03;;;5.30;74.00;;;;;;5053919;28;20035;-72
2022/01/23 02:57:09;;;;;;;10.48;7.45;;;5.40;74.40;;;;;;5053167;28;20032;-72
2022/01/23 02:59:39;;;;;;;10.30;7.63;;;5.40;74.50;;;;;;5060665;28;20381;-73
2022/01/23 03:02:26;;;;;;;10.55;7.25;;;5.40;74.60;;;;;;5059695;28;20073;-72
2022/01/23 03:04:54;;;;;;;9.13;6.30;;;5.40;74.40;;;;;;5047526;28;20041;-72
2022/01/23 03:10:11;;;;;;;9.88;6.80;;;5.40;74.40;;;;;;5053956;28;20504;-71
2022/01/23 03:24:10;;;;;;;12.02;7.72;;;5.50;74.50;;;;;;5030411;28;20065;-72
2022/01/23 03:26:35;;;;;;;10.60;7.05;;;5.50;74.30;;;;;;5055336;28;20032;-72
2022/01/23 03:29:22;;;;;;;11.77;8.57;;;5.50;74.30;;;;;;5035465;28;20144;-71
2022/01/23 03:34:17;;;;;;;11.40;6.90;;;5.50;74.30;;;;;;5053846;28;20384;-72
2022/01/23 03:36:42;;;;;;;11.43;7.45;;;5.50;74.30;;;;;;5069375;28;20024;-72
2022/01/23 03:39:09;;;;;;;11.27;7.07;;;5.50;74.30;;;;;;5053618;28;20124;-72
2022/01/23 03:41:36;;;;;;;10.77;7.53;;;5.50;74.40;;;;;;5052762;28;20025;-71
2022/01/23 03:44:04;;;;;;;11.82;7.60;;;5.50;74.40;;;;;;5052580;28;20078;-71
2022/01/23 03:51:53;;;;;;;9.57;7.32;;;5.60;74.50;;;;;;5053061;28;20032;-72
2022/01/23 03:54:18;;;;;;;11.57;7.47;;;5.50;74.30;;;;;;5052762;28;20033;-72
2022/01/23 03:56:44;;;;;;;12.13;8.40;;;5.70;74.40;;;;;;5052378;28;20489;-72
2022/01/23 03:59:10;;;;;;;14.43;8.82;;;5.50;74.10;;;;;;5052425;28;20505;-71
2022/01/23 04:01:36;;;;;;;11.95;7.22;;;5.50;74.30;;;;;;5054922;28;20029;-72
2022/01/23 04:04:06;;;;;;;21.65;11.35;;;5.50;74.30;;;;;;5056079;28;20477;-72
2022/01/23 04:06:33;;;;;;;40.03;16.08;;;5.50;74.40;;;;;;5066086;28;20024;-71
2022/01/23 04:08:59;;;;;;;34.65;13.77;;;5.50;74.50;;;;;;5052413;28;20025;-72
2022/01/23 04:11:24;;;;;;;41.85;17.30;;;5.50;74.50;;;;;;5057723;28;20103;-72
2022/01/23 04:14:00;;;;;;;23.77;12.52;;;5.50;74.50;;;;;;5061427;28;20032;-71
2022/01/23 04:59:53;;;;;;;9.40;5.90;;;5.20;74.60;;;;;;5066952;28;20063;-72
2022/01/23 05:04:59;;;;;;;12.13;8.15;;;5.20;74.80;;;;;;5049405;28;20123;-72
2022/01/23 05:07:28;;;;;;;11.80;8.65;;;5.20;74.90;;;;;;5055548;28;20041;-72
2022/01/23 05:09:54;;;;;;;12.23;8.57;;;5.20;75.00;;;;;;5062717;28;20111;-72
2022/01/23 05:12:25;;;;;;;13.57;9.15;;;5.20;75.00;;;;;;5060797;28;20108;-72
2022/01/23 05:14:51;;;;;;;13.30;8.65;;;5.20;75.00;;;;;;5072055;28;20384;-72
2022/01/23 05:17:18;;;;;;;13.25;8.95;;;5.30;75.10;;;;;;5071288;28;20040;-72
2022/01/23 05:19:45;;;;;;;14.02;8.45;;;5.30;75.10;;;;;;5054970;28;20544;-72
2022/01/23 05:22:35;;;;;;;12.73;8.25;;;5.30;75.10;;;;;;5055240;28;20025;-72
2022/01/23 05:25:22;;;;;;;12.48;8.10;;;5.60;75.20;;;;;;5054251;28;20064;-72
2022/01/23 05:27:52;;;;;;;14.68;7.75;;;5.30;74.90;;;;;;5050430;28;20125;-72
2022/01/23 05:30:17;;;;;;;10.70;7.63;;;5.30;74.60;;;;;;5056681;28;20057;-72
2022/01/23 05:32:43;;;;;;;11.65;8.02;;;5.30;74.40;;;;;;5057410;28;20079;-72
2022/01/23 05:35:12;;;;;;;12.98;8.40;;;5.30;74.30;;;;;;5058165;28;20060;-72
2022/01/23 05:37:38;;;;;;;12.48;7.90;;;5.30;74.50;;;;;;5054759;28;20359;-72
2022/01/23 05:40:06;;;;;;;11.57;7.28;;;5.20;74.60;;;;;;5070536;28;20091;-73
2022/01/23 05:42:31;;;;;;;11.13;7.10;;;5.20;74.70;;;;;;5054734;28;21152;-72
2022/01/23 05:44:57;;;;;;;10.43;7.43;;;5.20;74.80;;;;;;5068466;28;20032;-72
2022/01/23 05:47:23;;;;;;;12.30;8.00;;;5.20;74.90;;;;;;5062829;28;20044;-72
2022/01/23 05:49:48;;;;;;;11.70;7.40;;;5.20;75.00;;;;;;5053295;28;20033;-72
2022/01/23 05:52:15;;;;;;;13.02;7.90;;;5.20;75.00;;;;;;5065857;28;20028;-72
2022/01/23 05:54:41;;;;;;;12.18;7.82;;;5.30;75.10;;;;;;5070493;28;20489;-72
2022/01/23 05:57:07;;;;;;;11.80;7.70;;;5.30;75.10;;;;;;5054653;28;20033;-72
2022/01/23 05:59:33;;;;;;;11.65;7.43;;;5.30;75.10;;;;;;5056133;28;20025;-71
2022/01/23 06:01:58;;;;;;;10.82;7.50;;;5.30;75.10;;;;;;5055481;28;20048;-71
2022/01/23 06:04:25;;;;;;;11.88;7.80;;;5.30;75.10;;;;;;5060867;28;20033;-72
2022/01/23 06:06:53;;;;;;;12.20;7.68;;;5.30;75.10;;;;;;5053123;28;20117;-71
2022/01/23 06:09:20;;;;;;;10.93;7.20;;;5.30;75.00;;;;;;5067602;28;20050;-72
2022/01/23 06:11:46;;;;;;;11.45;7.72;;;5.30;75.00;;;;;;5072369;28;20043;-72
2022/01/23 06:14:12;;;;;;;13.00;7.88;;;5.30;75.00;;;;;;5068257;28;20028;-72
2022/01/23 06:16:39;;;;;;;11.13;7.40;;;5.30;75.00;;;;;;5070631;28;20032;-72
2022/01/23 06:19:05;;;;;;;12.38;7.43;;;5.40;75.10;;;;;;5069110;28;20384;-72
2022/01/23 06:21:31;;;;;;;13.50;8.13;;;5.40;75.00;;;;;;5059068;28;20021;-72
2022/01/23 06:24:07;;;;;;;10.82;7.53;;;5.40;75.00;;;;;;5050350;28;20640;-72
2022/01/23 06:26:43;;;;;;;10.18;7.22;;;5.40;75.00;;;;;;5054052;28;20363;-71
2022/01/23 06:29:10;;;;;;;11.75;7.57;;;5.40;75.00;;;;;;5054109;28;20358;-72
2022/01/23 06:31:36;;;;;;;11.52;7.45;;;5.40;74.90;;;;;;5056945;28;20052;-72
2022/01/23 06:34:02;;;;;;;10.07;7.20;;;5.40;74.80;;;;;;5070552;28;20025;-71
2022/01/23 06:36:28;;;;;;;9.20;7.18;;;5.40;74.80;;;;;;5052897;28;20032;-71
2022/01/23 06:38:54;;;;;;;15.15;10.30;;;5.40;74.90;;;;;;5053561;28;20035;-72
2022/01/23 06:41:19;;;;;;;16.48;12.70;;;5.40;74.80;;;;;;5053385;28;20028;-72
2022/01/23 06:43:46;;;;;;;14.27;10.93;;;5.40;74.90;;;;;;5060055;28;20028;-72
2022/01/23 06:46:11;;;;;;;13.18;8.85;;;5.40;74.90;;;;;;5055351;28;20389;-72
2022/01/23 06:48:37;;;;;;;10.98;7.95;;;5.40;74.90;;;;;;5053548;28;20025;-72
2022/01/23 06:51:02;;;;;;;11.00;7.95;;;5.40;74.90;;;;;;5053458;28;20033;-72
2022/01/23 06:53:28;;;;;;;11.45;8.18;;;5.40;74.90;;;;;;5052292;28;20029;-71
2022/01/23 06:55:54;;;;;;;10.57;8.00;;;5.40;74.90;;;;;;5051873;28;20025;-71
2022/01/23 06:58:19;;;;;;;10.25;6.90;;;5.40;75.00;;;;;;5048321;28;20091;-72
2022/01/23 07:00:45;;;;;;;11.32;7.47;;;5.40;74.90;;;;;;5060615;28;20017;-72
2022/01/23 07:03:12;;;;;;;10.88;7.07;;;5.40;74.80;;;;;;5056742;28;20140;-72
2022/01/23 07:05:38;;;;;;;9.15;5.93;;;5.40;74.90;;;;;;5061315;28;20485;-72
2022/01/23 07:08:04;;;;;;;7.90;5.25;;;5.40;74.80;;;;;;5057003;28;20072;-72
2022/01/23 07:10:30;;;;;;;8.43;6.00;;;5.40;75.60;;;;;;5052150;28;20024;-72
2022/01/23 07:12:55;;;;;;;8.27;5.95;;;5.40;74.90;;;;;;5065712;28;20028;-71
2022/01/23 07:15:21;;;;;;;8.52;6.30;;;5.40;74.70;;;;;;5054505;28;20487;-71
2022/01/23 07:17:47;;;;;;;9.32;6.50;;;5.40;75.50;;;;;;5053682;28;20098;-72
2022/01/23 07:20:13;;;;;;;7.55;5.47;;;5.40;74.80;;;;;;5056660;28;20028;-72
2022/01/23 07:22:38;;;;;;;8.75;5.60;;;5.40;74.90;;;;;;5058364;28;20021;-72
2022/01/23 07:25:05;;;;;;;8.00;5.20;;;5.40;74.80;;;;;;5062598;28;20024;-71
2022/01/23 07:27:38;;;;;;;7.82;5.65;;;5.40;74.90;;;;;;5064380;28;20024;-71
2022/01/23 07:30:08;;;;;;;7.88;5.43;;;5.40;75.00;;;;;;5068936;28;20340;-72
2022/01/23 07:32:34;;;;;;;8.40;5.50;;;5.40;75.00;;;;;;5060297;28;20025;-72
2022/01/23 07:35:00;;;;;;;6.68;5.05;;;5.40;75.00;;;;;;5051818;28;20033;-72
2022/01/23 07:37:25;;;;;;;6.25;4.88;;;5.50;75.10;;;;;;5056577;28;20030;-71
2022/01/23 07:39:51;;;;;;;9.65;5.63;;;5.40;75.00;;;;;;5068031;28;20021;-72
2022/01/23 07:42:17;;;;;;;7.93;5.28;;;5.50;75.10;;;;;;5031789;28;20029;-72
2022/01/23 07:44:43;;;;;;;9.88;6.65;;;5.50;75.10;;;;;;5057024;28;20085;-72
2022/01/23 07:47:08;;;;;;;10.32;6.50;;;5.50;75.10;;;;;;5053027;28;20367;-72
2022/01/23 07:49:34;;;;;;;10.02;6.20;;;5.50;74.90;;;;;;5060965;28;20017;-72
2022/01/23 07:52:01;;;;;;;8.82;5.85;;;5.50;74.90;;;;;;5069653;28;20039;-71
2022/01/23 07:54:27;;;;;;;7.72;5.43;;;5.50;74.90;;;;;;5054180;28;20025;-72
2022/01/23 07:56:53;;;;;;;8.20;5.70;;;5.50;75.00;;;;;;5052868;28;20516;-71
2022/01/23 07:59:18;;;;;;;7.50;5.03;;;5.60;75.80;;;;;;5051353;28;20025;-73
2022/01/23 08:01:44;;;;;;;9.40;5.80;;;5.60;75.20;;;;;;5058443;28;20097;-72
2022/01/23 08:04:10;;;;;;;9.40;6.57;;;5.60;75.10;;;;;;5057407;28;20039;-71
2022/01/23 08:06:44;;;;;;;9.88;6.22;;;5.60;75.00;;;;;;5052568;28;20033;-72
2022/01/23 08:09:11;;;;;;;10.98;6.20;;;5.70;75.10;;;;;;5034979;28;20075;-71
2022/01/23 08:11:36;;;;;;;11.38;6.88;;;5.70;75.10;;;;;;5043990;28;20473;-72
2022/01/23 08:14:03;;;;;;;11.07;7.57;;;5.70;74.90;;;;;;5060201;28;20072;-71
2022/01/23 08:16:29;;;;;;;8.70;6.47;;;5.70;74.70;;;;;;5052958;28;20045;-71
2022/01/23 08:18:55;;;;;;;10.52;6.80;;;5.70;74.70;;;;;;5052291;28;20071;-72
2022/01/23 08:21:20;;;;;;;10.15;6.85;;;5.70;74.70;;;;;;5052147;28;20025;-71
2022/01/23 08:23:46;;;;;;;9.20;6.32;;;5.70;74.80;;;;;;5052514;28;20045;-72
2022/01/23 08:26:12;;;;;;;9.77;6.50;;;5.70;74.90;;;;;;5052037;28;20109;-72
2022/01/23 08:28:38;;;;;;;17.88;10.32;;;5.70;75.10;;;;;;5037309;28;20037;-72
2022/01/23 08:31:03;;;;;;;16.92;10.15;;;5.80;75.30;;;;;;5050178;28;20404;-72
2022/01/23 08:33:29;;;;;;;15.32;8.48;;;5.80;75.30;;;;;;5051262;28;20074;-73
2022/01/23 08:35:57;;;;;;;12.02;7.45;;;5.80;75.30;;;;;;5050612;28;20466;-72
2022/01/23 08:38:24;;;;;;;11.45;7.43;;;5.80;75.20;;;;;;5054867;28;20086;-72
2022/01/23 08:43:37;;;;;;;11.25;7.07;;;6.00;75.40;;;;;;5043188;28;20041;-72
2022/01/23 08:46:04;;;;;;;13.48;7.75;;;6.00;75.30;;;;;;5047675;28;20476;-72
2022/01/23 08:48:31;;;;;;;11.23;7.82;;;6.00;75.20;;;;;;5065953;28;20091;-72
2022/01/23 08:50:57;;;;;;;12.80;7.78;;;6.10;75.20;;;;;;5071406;28;20033;-72
2022/01/23 08:53:23;;;;;;;10.90;7.22;;;6.10;75.00;;;;;;5066373;28;20032;-72
2022/01/23 08:55:52;;;;;;;12.20;7.53;;;6.20;74.80;;;;;;5050710;28;20036;-72
2022/01/23 08:58:18;;;;;;;10.43;6.75;;;6.20;74.70;;;;;;5054790;28;20393;-72
2022/01/23 09:00:44;;;;;;;8.77;6.22;;;6.20;74.60;;;;;;5051791;28;20025;-72
2022/01/23 09:03:09;;;;;;;9.27;6.50;;;6.30;74.80;;;;;;5059178;28;20044;-72
2022/01/23 09:05:38;;;;;;;9.15;6.70;;;6.30;74.80;;;;;;5039399;28;20036;-73
2022/01/23 09:08:04;;;;;;;6.82;5.43;;;6.40;74.70;;;;;;5064414;28;20024;-72
2022/01/23 09:10:39;;;;;;;8.35;6.03;;;6.40;74.70;;;;;;5050748;28;20086;-71
2022/01/23 09:13:29;;;;;;;7.22;5.75;;;6.40;74.60;;;;;;5065832;28;20029;-70
2022/01/23 09:15:55;;;;;;;7.50;5.20;;;6.50;74.70;;;;;;5050919;28;20028;-71
2022/01/23 09:18:21;;;;;;;8.13;5.55;;;6.60;74.70;;;;;;5052222;28;20385;-71
2022/01/23 09:20:47;;;;;;;7.63;5.30;;;6.60;74.50;;;;;;5053443;28;20036;-71
2022/01/23 09:23:12;;;;;;;9.93;6.25;;;6.70;74.40;;;;;;5040901;28;20516;-71
2022/01/23 09:25:38;;;;;;;6.88;5.30;;;6.70;74.20;;;;;;5044716;28;20040;-71
2022/01/23 09:28:05;;;;;;;8.05;4.93;;;6.70;74.00;;;;;;5035460;28;20064;-71
2022/01/23 09:30:35;;;;;;;7.53;4.50;;;6.80;73.90;;;;;;5036842;28;20055;-71
2022/01/23 09:33:02;;;;;;;5.97;4.40;;;6.80;73.70;;;;;;5047198;28;20068;-71
2022/01/23 09:35:28;;;;;;;6.72;4.80;;;6.80;73.50;;;;;;5051872;28;20505;-71
2022/01/23 09:37:54;;;;;;;7.80;5.88;;;6.90;73.40;;;;;;5048129;28;20036;-71
2022/01/23 09:40:21;;;;;;;7.47;5.25;;;6.90;73.60;;;;;;5051603;28;20098;-70
2022/01/23 09:42:55;;;;;;;9.52;5.63;;;6.90;73.70;;;;;;5037110;28;20041;-71
2022/01/23 09:45:22;;;;;;;7.55;4.57;;;7.00;73.60;;;;;;5058408;28;20040;-71
2022/01/23 09:47:48;;;;;;;6.82;4.72;;;7.00;73.50;;;;;;5054117;28;20033;-71
2022/01/23 09:50:17;;;;;;;6.35;4.65;;;7.00;73.30;;;;;;5052960;28;20434;-71
2022/01/23 09:52:43;;;;;;;6.20;4.90;;;7.10;73.30;;;;;;5071896;28;20119;-71
2022/01/23 09:55:12;;;;;;;8.25;5.45;;;7.10;73.20;;;;;;5061444;28;20493;-71
2022/01/23 09:57:44;;;;;;;9.82;5.13;;;7.10;73.10;;;;;;5060959;28;20457;-71
2022/01/23 10:00:25;;;;;;;8.32;5.38;;;7.20;72.90;;;;;;5049247;28;20522;-71
2022/01/23 10:02:55;;;;;;;9.00;6.10;;;7.20;73.00;;;;;;5045342;28;20026;-71
2022/01/23 10:05:21;;;;;;;7.72;5.50;;;7.20;73.10;;;;;;5037154;28;20041;-71
2022/01/23 10:07:47;;;;;;;8.25;6.00;;;7.30;73.20;;;;;;5041830;28;20108;-71
2022/01/23 10:10:20;;;;;;;6.25;4.97;;;7.30;73.10;;;;;;5045122;28;20025;-71
2022/01/23 10:12:50;;;;;;;6.88;5.10;;;7.40;73.00;;;;;;5038989;28;20023;-71
2022/01/23 10:15:21;;;;;;;8.02;5.30;;;7.40;72.80;;;;;;5048273;28;20033;-71
2022/01/23 10:17:47;;;;;;;8.57;5.72;;;7.50;72.70;;;;;;5031040;28;20021;-71
2022/01/23 10:20:15;;;;;;;7.53;5.40;;;7.50;72.60;;;;;;5037672;28;20452;-71
2022/01/23 10:22:44;;;;;;;7.40;5.72;;;7.60;72.50;;;;;;5039638;28;20430;-71
2022/01/23 10:25:13;;;;;;;7.32;5.40;;;7.60;72.30;;;;;;5047455;28;20486;-71
2022/01/23 10:28:05;;;;;;;8.02;5.78;;;7.60;72.10;;;;;;5042158;28;20021;-71
2022/01/23 10:30:45;;;;;;;7.93;5.68;;;7.70;71.40;;;;;;5031449;28;20056;-71
2022/01/23 10:33:16;;;;;;;7.93;5.70;;;7.70;71.80;;;;;;5041768;28;20112;-71
2022/01/23 10:36:05;;;;;;;8.07;5.53;;;7.70;72.00;;;;;;5051525;28;20025;-71
2022/01/23 10:38:43;;;;;;;8.73;5.53;;;7.70;71.70;;;;;;5043089;28;20422;-71
2022/01/23 10:49:47;;;;;;;;;;;7.70;71.00;;;;;;5043212;28;20028;-71
2022/01/23 10:52:40;;;;;;;8.10;5.20;;;7.60;71.20;;;;;;5054625;28;20426;-71
2022/01/23 10:55:12;;;;;;;8.35;5.30;;;7.60;71.00;;;;;;5061414;28;20477;-71
2022/01/23 10:57:40;;;;;;;7.32;5.05;;;7.60;71.30;;;;;;5053034;28;20028;-71
2022/01/23 11:00:36;;;;;;;7.38;5.72;;;7.60;71.50;;;;;;5053383;28;20027;-71
2022/01/23 11:03:22;;;;;;;7.82;5.90;;;7.60;71.50;;;;;;5067251;28;20115;-70
2022/01/23 11:05:49;;;;;;;7.43;5.30;;;7.60;71.70;;;;;;5064157;28;20032;-71
2022/01/23 11:08:28;;;;;;;8.50;5.90;;;7.70;72.10;;;;;;5065262;28;20074;-71
2022/01/23 11:10:59;;;;;;;8.80;6.18;;;7.70;71.90;;;;;;5056850;28;20040;-70
2022/01/23 11:19:41;;;;;;;8.82;5.85;;;8.00;71.30;;;;;;5025783;28;20156;-70
2022/01/23 11:22:17;;;;;;;8.90;6.32;;;8.00;71.60;;;;;;5047384;28;20037;-70
2022/01/23 11:24:47;;;;;;;9.10;6.07;;;8.10;71.50;;;;;;5058804;28;20083;-71
2022/01/23 11:27:15;;;;;;;12.30;6.25;;;8.20;71.70;;;;;;5048825;28;20025;-71
2022/01/23 11:30:04;;;;;;;9.35;6.20;;;8.20;71.40;;;;;;5046168;28;20489;-71
2022/01/23 11:32:35;;;;;;;11.23;7.57;;;8.20;70.60;;;;;;5051937;28;20029;-70
2022/01/23 11:35:06;;;;;;;18.85;12.85;;;8.30;71.00;;;;;;5051744;28;20024;-70
2022/01/23 11:37:33;;;;;;;9.38;6.47;;;8.30;71.00;;;;;;5053242;28;20055;-70
2022/01/23 11:40:06;;;;;;;9.27;5.95;;;8.40;70.80;;;;;;5060929;28;20024;-71
2022/01/23 11:53:47;;;;;;;11.60;6.07;;;8.60;70.00;;;;;;5052738;28;20032;-71
2022/01/23 11:56:25;;;;;;;9.55;5.90;;;8.60;69.70;;;;;;5047439;28;20120;-71
2022/01/23 11:59:15;;;;;;;8.57;5.70;;;8.60;68.90;;;;;;5040327;28;20037;-72
2022/01/23 12:01:43;;;;;;;8.05;5.43;;;8.60;68.50;;;;;;5033534;28;20060;-72
2022/01/23 12:04:09;;;;;;;7.38;5.45;;;8.70;68.90;;;;;;5044206;28;20032;-72
2022/01/23 12:06:37;;;;;;;7.35;4.70;;;8.70;68.90;;;;;;5046196;28;20029;-72
2022/01/23 12:09:16;;;;;;;5.20;3.42;;;8.70;68.80;;;;;;5044705;28;20525;-72
2022/01/23 12:12:04;;;;;;;4.88;3.53;;;8.70;68.00;;;;;;5039530;28;20077;-72
2022/01/23 12:17:11;;;;;;;6.95;4.00;;;8.80;67.80;;;;;;5032674;28;20032;-72
2022/01/23 12:19:53;;;;;;;6.45;4.20;;;8.80;67.30;;;;;;5035582;28;20037;-72
2022/01/23 12:22:42;;;;;;;4.72;3.72;;;8.80;67.20;;;;;;5039861;28;20493;-72
2022/01/23 12:25:20;;;;;;;4.70;3.40;;;8.80;67.00;;;;;;5046147;28;20036;-72
2022/01/23 12:27:47;;;;;;;3.70;3.15;;;8.80;66.50;;;;;;5049258;28;20044;-72
2022/01/23 12:30:15;;;;;;;5.40;4.00;;;8.80;67.00;;;;;;5050542;28;20127;-72
2022/01/23 12:32:42;;;;;;;18.83;11.35;;;8.80;66.40;;;;;;5040293;28;20028;-73
2022/01/23 12:35:10;;;;;;;9.15;6.65;;;8.80;66.70;;;;;;5051705;28;20061;-72
2022/01/23 12:38:00;;;;;;;4.13;3.13;;;8.80;66.60;;;;;;5052236;28;20430;-72
2022/01/23 12:40:49;;;;;;;8.73;4.55;;;9.00;65.30;;;;;;5054262;28;20048;-72
2022/01/23 12:43:18;;;;;;;5.47;3.80;;;8.80;65.00;;;;;;5041830;28;20496;-72
2022/01/23 12:45:57;;;;;;;3.83;3.05;;;8.80;65.90;;;;;;5050827;28;20049;-72
2022/01/23 12:48:26;;;;;;;3.92;2.38;;;8.80;64.80;;;;;;5064662;28;20017;-72
2022/01/23 12:50:59;;;;;;;7.00;4.70;;;8.80;65.30;;;;;;5068168;28;20032;-72
2022/01/23 12:53:43;;;;;;;2.83;2.17;;;8.80;65.10;;;;;;5054543;28;20028;-71
2022/01/23 12:56:13;;;;;;;11.55;6.38;;;8.70;64.00;;;;;;5059997;28;20079;-72
2022/01/23 12:58:41;;;;;;;96.07;40.08;;;8.70;65.00;;;;;;5054438;28;20055;-72
2022/01/23 13:01:18;;;;;;;30.48;17.38;;;8.70;65.00;;;;;;5058494;28;20033;-72
2022/01/23 13:04:01;;;;;;;22.08;13.30;;;8.70;65.00;;;;;;5046892;28;20037;-73
2022/01/23 13:06:49;;;;;;;14.43;7.82;;;8.70;64.20;;;;;;5044099;28;20028;-72
2022/01/23 13:09:23;;;;;;;7.93;4.57;;;8.70;64.20;;;;;;5062906;28;20376;-72
2022/01/23 13:12:30;;;;;;;3.00;2.25;;;8.70;64.70;;;;;;5038540;28;20473;-72
2022/01/23 13:32:16;;;;;;;1.00;0.90;;;8.70;63.90;;;;;;5068484;28;20036;-70
2022/01/23 13:34:56;;;;;;;1.30;0.80;;;8.60;64.00;;;;;;5059121;28;20025;-70
2022/01/23 13:37:32;;;;;;;0.80;0.80;;;8.60;63.10;;;;;;5050114;28;20115;-70
2022/01/23 13:40:08;;;;;;;1.00;0.90;;;8.60;62.80;;;;;;5052997;28;20103;-71
2022/01/23 13:42:52;;;;;;;0.93;0.80;;;8.50;63.30;;;;;;5054117;28;20029;-70
2022/01/23 14:02:25;;;;;;;1.30;1.20;;;8.30;63.40;;;;;;5061148;28;20488;-70
2022/01/23 14:05:04;;;;;;;4.03;1.00;;;8.30;62.60;;;;;;5053634;28;20044;-70
2022/01/23 14:07:33;;;;;;;1.40;1.15;;;8.30;63.00;;;;;;5053554;28;20070;-70
2022/01/23 14:10:33;;;;;;;2.13;1.40;;;8.30;63.10;;;;;;5060721;28;20029;-70
2022/01/23 14:13:14;;;;;;;2.45;1.60;;;8.30;62.10;;;;;;5044225;28;20641;-70
2022/01/23 14:15:46;;;;;;;1.77;1.23;;;8.30;62.30;;;;;;5057662;28;20086;-70
2022/01/23 14:18:17;;;;;;;1.20;1.10;;;8.30;62.60;;;;;;5055471;28;20032;-70
2022/01/23 14:21:05;;;;;;;1.40;1.30;;;8.20;62.90;;;;;;5052600;28;20025;-70
2022/01/23 14:23:33;;;;;;;1.50;1.10;;;8.10;62.30;;;;;;5052699;28;20045;-70
2022/01/23 14:26:06;;;;;;;1.50;1.10;;;8.20;63.10;;;;;;5052200;28;20025;-69
2022/01/23 14:28:46;;;;;;;1.60;1.10;;;8.20;62.60;;;;;;5051253;28;20029;-69
2022/01/23 14:31:20;;;;;;;4.63;4.15;;;8.20;62.50;;;;;;5051908;28;20040;-70
2022/01/23 14:33:51;;;;;;;3.95;2.90;;;8.20;63.90;;;;;;5055759;28;20082;-70
2022/01/23 14:36:24;;;;;;;2.47;1.70;;;8.20;63.30;;;;;;5052556;28;20116;-70
2022/01/23 14:38:54;;;;;;;1.60;1.50;;;8.20;62.90;;;;;;5051903;28;20075;-70
2022/01/23 14:41:20;;;;;;;1.58;1.48;;;8.20;63.10;;;;;;5049591;28;20028;-70
2022/01/23 14:43:46;;;;;;;2.40;1.42;;;8.20;63.40;;;;;;5055929;28;20420;-70
2022/01/23 14:46:12;;;;;;;1.92;1.73;;;8.20;63.20;;;;;;5060560;28;20021;-70
2022/01/23 14:48:45;;;;;;;2.65;1.50;;;8.20;63.30;;;;;;5053450;28;20029;-70
2022/01/23 14:51:16;;;;;;;1.55;1.40;;;8.20;63.20;;;;;;5052917;28;20473;-70
2022/01/23 14:53:42;;;;;;;2.83;2.03;;;8.20;63.20;;;;;;5066535;28;20438;-70
2022/01/23 14:56:13;;;;;;;3.03;2.20;;;8.20;63.20;;;;;;5055441;28;20025;-70
2022/01/23 14:58:39;;;;;;;2.50;1.90;;;8.10;63.00;;;;;;5059901;28;20573;-70
2022/01/23 15:01:10;;;;;;;2.20;1.77;;;8.10;62.90;;;;;;5054747;28;20033;-70
2022/01/23 15:03:38;;;;;;;1.90;1.65;;;8.10;62.90;;;;;;5041471;28;20045;-70
2022/01/23 15:06:04;;;;;;;2.22;2.03;;;8.00;63.00;;;;;;5061616;28;20025;-70
2022/01/23 15:08:31;;;;;;;3.03;2.35;;;8.00;63.20;;;;;;5051454;28;20032;-70
2022/01/23 15:11:00;;;;;;;3.45;2.55;;;8.00;63.30;;;;;;5042950;28;20025;-69
2022/01/23 15:13:27;;;;;;;2.15;1.95;;;8.00;63.50;;;;;;5053454;28;20067;-70
2022/01/23 15:15:54;;;;;;;2.50;1.88;;;8.10;63.70;;;;;;5038612;28;20028;-70
2022/01/23 15:18:22;;;;;;;3.30;2.30;;;7.90;63.80;;;;;;5051540;28;20063;-70
2022/01/23 15:20:49;;;;;;;2.22;2.00;;;7.90;63.60;;;;;;5044068;28;20025;-70
2022/01/23 15:23:16;;;;;;;1.92;1.73;;;7.90;63.30;;;;;;5048868;28;20112;-70
2022/01/23 15:25:43;;;;;;;4.22;2.00;;;7.90;63.40;;;;;;5051278;28;20032;-70
2022/01/23 15:28:10;;;;;;;1.98;1.58;;;7.90;63.30;;;;;;5050535;28;20520;-69
2022/01/23 15:30:36;;;;;;;1.40;1.30;;;7.80;63.30;;;;;;5049725;28;20053;-69
2022/01/23 15:33:04;;;;;;;2.10;1.60;;;7.80;63.40;;;;;;5051726;28;20118;-70
2022/01/23 15:35:30;;;;;;;4.43;1.60;;;7.80;63.50;;;;;;5056923;28;20413;-70
2022/01/23 15:37:56;;;;;;;1.95;1.45;;;7.80;63.70;;;;;;5052101;28;20128;-70
2022/01/23 15:40:24;;;;;;;3.72;1.77;;;7.70;63.60;;;;;;5051254;28;20074;-70
2022/01/23 15:42:52;;;;;;;1.90;1.48;;;7.70;63.70;;;;;;5049583;28;20584;-69
2022/01/23 15:45:20;;;;;;;2.58;1.58;;;7.70;63.60;;;;;;5058485;28;20113;-69
2022/01/23 15:47:46;;;;;;;2.25;1.85;;;7.60;63.50;;;;;;5050593;28;20497;-70
2022/01/23 15:50:14;;;;;;;2.33;1.80;;;7.60;63.60;;;;;;5058534;28;20032;-69
2022/01/23 15:52:40;;;;;;;2.92;2.17;;;7.60;63.70;;;;;;5052291;28;20048;-70
2022/01/23 15:55:07;;;;;;;3.03;2.50;;;7.60;63.80;;;;;;5050405;28;20489;-70
2022/01/23 15:57:33;;;;;;;4.72;2.63;;;7.60;63.50;;;;;;5051890;28;20047;-70
2022/01/23 15:59:59;;;;;;;5.50;3.45;;;7.50;63.80;;;;;;5051018;28;20100;-69
2022/01/23 16:02:25;;;;;;;3.38;2.53;;;7.50;64.00;;;;;;5041992;28;20134;-70
2022/01/23 16:04:51;;;;;;;3.80;2.08;;;7.50;64.00;;;;;;5057580;28;20074;-69
2022/01/23 16:07:18;;;;;;;2.33;1.95;;;7.50;64.00;;;;;;5049555;28;20071;-70
2022/01/23 16:09:45;;;;;;;2.40;1.85;;;7.40;64.00;;;;;;5056916;28;20493;-69
2022/01/23 16:12:12;;;;;;;1.85;1.67;;;7.40;64.00;;;;;;5051978;28;20443;-69
2022/01/23 16:14:38;;;;;;;2.75;2.25;;;7.40;64.10;;;;;;5052293;28;20020;-70
2022/01/23 16:17:05;;;;;;;2.53;2.00;;;7.40;64.00;;;;;;5051887;28;20393;-69
2022/01/23 16:19:31;;;;;;;3.33;2.10;;;7.40;64.10;;;;;;5054336;28;20112;-70
2022/01/23 16:21:56;;;;;;;2.03;1.67;;;7.40;64.20;;;;;;5055001;28;20035;-69
2022/01/23 16:24:33;;;;;;;2.92;1.92;;;7.30;64.20;;;;;;5059108;28;20447;-69
2022/01/23 16:26:59;;;;;;;2.83;2.17;;;7.30;64.70;;;;;;5052727;28;20112;-69
2022/01/23 16:29:26;;;;;;;2.78;2.13;;;7.30;64.50;;;;;;5057966;28;20559;-69
2022/01/23 16:31:58;;;;;;;3.13;1.92;;;7.30;64.60;;;;;;5055097;28;20029;-70
2022/01/23 16:34:24;;;;;;;2.35;1.95;;;7.30;64.60;;;;;;5051643;28;20049;-70
2022/01/23 16:36:52;;;;;;;2.42;1.95;;;7.30;64.70;;;;;;5041056;28;20038;-70
2022/01/23 16:39:18;;;;;;;2.58;1.90;;;7.30;64.70;;;;;;5053662;28;20032;-70
2022/01/23 16:41:43;;;;;;;4.10;2.60;;;7.30;64.60;;;;;;5039763;28;20025;-70
2022/01/23 16:44:10;;;;;;;4.22;2.88;;;7.30;64.70;;;;;;5043822;28;20052;-69